createdAt,value
2018-07-26T00:00:01.489Z,77.05
2018-07-26T00:02:30.247Z,76.81
2018-07-26T00:04:59.315Z,77.06
2018-07-26T00:07:28.107Z,77.47
2018-07-26T00:09:56.830Z,77.44
2018-07-26T00:12:25.881Z,77.75
2018-07-26T00:14:54.703Z,77.82
2018-07-26T00:17:23.746Z,77.71
2018-07-26T00:19:53.102Z,77.87
2018-07-26T00:22:21.800Z,77.76
2018-07-26T00:24:53.717Z,78.06
2018-07-26T00:27:22.447Z,77.45
2018-07-26T00:29:51.539Z,77.77
2018-07-26T00:32:20.307Z,77.13
2018-07-26T00:34:49.105Z,77.23
2018-07-26T00:37:18.161Z,77.89
2018-07-26T00:39:47.704Z,77.16
2018-07-26T00:42:16.892Z,77.78
2018-07-26T00:44:45.987Z,77.80
2018-07-26T00:47:15.348Z,78.40
2018-07-26T00:49:44.721Z,79.01
2018-07-26T00:52:13.933Z,79.06
2018-07-26T00:54:42.704Z,79.39
2018-07-26T00:57:12.279Z,79.66
2018-07-26T00:59:41.265Z,80.00
2018-07-26T01:02:10.026Z,80.26
2018-07-26T01:04:39.452Z,80.24
2018-07-26T01:07:08.276Z,80.46
2018-07-26T01:09:37.931Z,80.94
2018-07-26T01:12:06.875Z,81.23
2018-07-26T01:14:36.744Z,81.52
2018-07-26T01:17:06.983Z,81.18
2018-07-26T01:19:36.943Z,81.13
2018-07-26T01:22:07.633Z,81.54
2018-07-26T01:24:36.682Z,81.48
2018-07-26T01:27:05.465Z,81.87
2018-07-26T01:29:34.466Z,81.84
2018-07-26T01:32:03.823Z,82.66
2018-07-26T01:34:32.590Z,82.83
2018-07-26T01:37:01.627Z,82.70
2018-07-26T01:39:30.343Z,83.01
2018-07-26T01:42:00.055Z,82.71
2018-07-26T01:44:29.311Z,84.08
2018-07-26T01:46:58.722Z,84.30
2018-07-26T01:49:27.665Z,84.04
2018-07-26T01:51:56.393Z,83.87
2018-07-26T01:54:25.466Z,84.25
2018-07-26T01:56:54.467Z,84.29
2018-07-26T01:59:23.881Z,84.57
2018-07-26T02:01:52.874Z,85.16
2018-07-26T02:04:22.288Z,84.61
2018-07-26T02:06:51.675Z,84.68
2018-07-26T02:09:20.749Z,84.77
2018-07-26T02:11:49.757Z,85.26
2018-07-26T02:14:24.165Z,85.58
2018-07-26T02:16:53.139Z,85.06
2018-07-26T02:19:22.191Z,85.16
2018-07-26T02:21:50.954Z,85.78
2018-07-26T02:24:20.060Z,85.60
2018-07-26T02:26:49.118Z,85.17
2018-07-26T02:29:18.206Z,85.73
2018-07-26T02:31:47.253Z,86.12
2018-07-26T02:34:16.753Z,86.19
2018-07-26T02:36:45.949Z,86.12
2018-07-26T02:39:14.699Z,85.73
2018-07-26T02:41:43.476Z,86.00
2018-07-26T02:44:12.788Z,85.77
2018-07-26T02:46:41.772Z,86.33
2018-07-26T02:49:10.503Z,86.36
2018-07-26T02:51:40.025Z,85.90
2018-07-26T02:54:09.055Z,86.41
2018-07-26T02:56:37.802Z,85.81
2018-07-26T02:59:06.564Z,86.15
2018-07-26T03:01:35.683Z,86.34
2018-07-26T03:04:04.832Z,86.25
2018-07-26T03:06:33.789Z,87.18
2018-07-26T03:09:02.878Z,87.20
2018-07-26T03:11:31.986Z,86.72
2018-07-26T03:14:01.280Z,86.53
2018-07-26T03:16:30.360Z,87.07
2018-07-26T03:18:59.108Z,86.91
2018-07-26T03:21:28.112Z,86.89
2018-07-26T03:23:56.842Z,86.90
2018-07-26T03:26:26.296Z,87.37
2018-07-26T03:28:55.316Z,87.88
2018-07-26T03:31:24.397Z,87.70
2018-07-26T03:33:53.148Z,87.79
2018-07-26T03:36:22.151Z,87.81
2018-07-26T03:38:51.290Z,87.35
2018-07-26T03:41:20.056Z,87.95
2018-07-26T03:43:49.073Z,87.94
2018-07-26T03:46:17.857Z,87.93
2018-07-26T03:48:46.850Z,87.93
2018-07-26T03:51:16.250Z,88.06
2018-07-26T03:53:45.564Z,88.11
2018-07-26T03:56:14.326Z,88.10
2018-07-26T03:58:43.322Z,88.19
2018-07-26T04:01:12.314Z,88.82
2018-07-26T04:03:41.902Z,88.45
2018-07-26T04:06:11.553Z,88.44
2018-07-26T04:08:40.387Z,88.71
2018-07-26T04:11:09.422Z,88.96
2018-07-26T04:13:38.745Z,89.00
2018-07-26T04:16:07.853Z,89.15
2018-07-26T04:18:37.271Z,89.09
2018-07-26T04:21:07.632Z,88.67
2018-07-26T04:26:04.587Z,88.52
2018-07-26T04:28:33.364Z,89.06
2018-07-26T04:31:02.099Z,88.88
2018-07-26T04:33:30.836Z,88.82
2018-07-26T04:35:59.904Z,88.79
2018-07-26T04:38:28.663Z,88.17
2018-07-26T04:40:57.753Z,88.36
2018-07-26T04:43:26.504Z,88.84
2018-07-26T04:45:55.631Z,88.63
2018-07-26T04:48:24.786Z,88.86
2018-07-26T04:50:53.841Z,88.32
2018-07-26T04:53:22.566Z,88.45
2018-07-26T04:55:52.807Z,88.37
2018-07-26T04:58:21.604Z,88.71
2018-07-26T05:00:50.338Z,88.35
2018-07-26T05:03:19.087Z,88.81
2018-07-26T05:05:48.141Z,89.11
2018-07-26T05:08:16.928Z,89.55
2018-07-26T05:10:45.736Z,90.06
2018-07-26T05:13:14.770Z,90.04
2018-07-26T05:15:43.829Z,89.89
2018-07-26T05:18:13.057Z,89.79
2018-07-26T05:20:42.938Z,90.59
2018-07-26T05:23:12.035Z,90.59
2018-07-26T05:25:41.280Z,90.66
2018-07-26T05:28:10.073Z,90.15
2018-07-26T05:30:39.258Z,90.58
2018-07-26T05:33:08.009Z,89.68
2018-07-26T05:35:37.058Z,89.64
2018-07-26T05:38:06.147Z,89.97
2018-07-26T05:40:35.348Z,89.88
2018-07-26T05:43:04.284Z,89.67
2018-07-26T05:45:33.614Z,89.02
2018-07-26T05:48:02.407Z,88.89
2018-07-26T05:50:31.536Z,88.43
2018-07-26T05:53:00.331Z,88.46
2018-07-26T05:55:29.708Z,87.98
2018-07-26T05:57:59.107Z,87.95
2018-07-26T06:00:28.272Z,87.49
2018-07-26T06:02:57.340Z,87.27
2018-07-26T06:05:26.111Z,87.08
2018-07-26T06:07:55.657Z,86.45
2018-07-26T06:10:24.688Z,84.71
2018-07-26T06:12:53.503Z,84.29
2018-07-26T06:15:22.321Z,84.90
2018-07-26T06:17:51.256Z,84.28
2018-07-26T06:20:20.438Z,83.53
2018-07-26T06:22:50.567Z,82.95
2018-07-26T06:25:19.994Z,81.87
2018-07-26T06:27:48.793Z,82.19
2018-07-26T06:30:17.534Z,80.82
2018-07-26T06:32:47.329Z,79.00
2018-07-26T06:35:16.120Z,78.44
2018-07-26T06:37:44.865Z,78.26
2018-07-26T06:40:14.605Z,77.44
2018-07-26T06:42:43.674Z,76.65
2018-07-26T06:45:12.429Z,75.55
2018-07-26T06:47:41.535Z,74.81
2018-07-26T06:50:12.092Z,74.34
2018-07-26T06:52:41.421Z,73.94
2018-07-26T06:55:10.619Z,72.50
2018-07-26T06:57:40.286Z,71.41
2018-07-26T07:00:10.453Z,70.77
2018-07-26T07:02:40.282Z,68.11
2018-07-26T07:05:09.557Z,66.75
2018-07-26T07:07:38.916Z,66.04
2018-07-26T07:10:08.374Z,66.21
2018-07-26T07:12:37.530Z,65.17
2018-07-26T07:15:06.268Z,64.12
2018-07-26T07:17:35.059Z,63.33
2018-07-26T07:20:04.113Z,62.62
2018-07-26T07:22:33.103Z,63.18
2018-07-26T07:25:02.188Z,62.42
2018-07-26T07:27:31.163Z,62.32
2018-07-26T07:29:59.965Z,60.52
2018-07-26T07:32:29.362Z,59.61
2018-07-26T07:34:58.663Z,59.11
2018-07-26T07:37:27.500Z,59.48
2018-07-26T07:39:56.242Z,59.14
2018-07-26T07:42:25.440Z,57.67
2018-07-26T07:44:54.223Z,57.00
2018-07-26T07:47:23.093Z,55.76
2018-07-26T07:49:52.099Z,56.57
2018-07-26T07:52:21.438Z,56.11
2018-07-26T07:54:50.314Z,54.76
2018-07-26T07:57:19.144Z,52.64
2018-07-26T07:59:47.939Z,53.53
2018-07-26T08:02:17.032Z,53.78
2018-07-26T08:04:46.034Z,53.29
2018-07-26T08:07:15.067Z,53.52
2018-07-26T08:09:43.809Z,53.39
2018-07-26T08:12:12.932Z,53.38
2018-07-26T08:14:41.674Z,54.12
2018-07-26T08:17:10.397Z,53.04
2018-07-26T08:19:39.471Z,52.43
2018-07-26T08:22:08.222Z,53.19
2018-07-26T08:24:37.441Z,51.96
2018-07-26T08:27:06.889Z,51.86
2018-07-26T08:29:35.654Z,51.28
2018-07-26T08:32:05.299Z,50.56
2018-07-26T08:34:34.723Z,50.88
2018-07-26T08:37:03.784Z,50.47
2018-07-26T08:39:32.542Z,50.54
2018-07-26T08:42:01.355Z,49.03
2018-07-26T08:44:30.343Z,49.45
2018-07-26T08:46:59.769Z,49.03
2018-07-26T08:49:29.052Z,48.29
2018-07-26T08:51:58.005Z,46.60
2018-07-26T08:54:28.702Z,47.54
2018-07-26T08:56:58.422Z,45.97
2018-07-26T08:59:28.493Z,45.28
2018-07-26T09:01:57.597Z,45.78
2018-07-26T09:04:27.962Z,44.75
2018-07-26T09:06:57.374Z,45.29
2018-07-26T09:09:26.090Z,44.30
2018-07-26T09:11:56.350Z,43.48
2018-07-26T09:14:26.074Z,44.25
2018-07-26T09:16:55.506Z,43.19
2018-07-26T09:19:24.799Z,43.06
2018-07-26T09:21:53.919Z,42.58
2018-07-26T09:24:22.734Z,41.38
2018-07-26T09:26:51.977Z,40.66
2018-07-26T09:29:21.330Z,41.07
2018-07-26T09:31:50.566Z,40.84
2018-07-26T09:34:20.121Z,40.10
2018-07-26T09:36:48.986Z,39.04
2018-07-26T09:39:17.786Z,39.34
2018-07-26T09:41:46.577Z,38.07
2018-07-26T09:44:15.575Z,39.00
2018-07-26T09:46:44.569Z,36.81
2018-07-26T09:49:13.402Z,35.89
2018-07-26T09:51:43.117Z,34.08
2018-07-26T09:54:12.118Z,34.00
2018-07-26T09:56:40.934Z,34.28
2018-07-26T09:59:09.945Z,34.07
2018-07-26T10:01:40.304Z,32.34
2018-07-26T10:04:09.734Z,30.76
2018-07-26T10:06:40.718Z,31.45
2018-07-26T10:09:23.512Z,31.70
2018-07-26T10:14:13.221Z,31.91
2018-07-26T10:16:42.184Z,29.93
2018-07-26T10:19:11.251Z,30.68
2018-07-26T10:21:40.212Z,28.80
2018-07-26T10:24:10.333Z,28.72
2018-07-26T10:26:40.177Z,28.87
2018-07-26T10:29:10.779Z,28.31
2018-07-26T10:31:39.567Z,28.11
2018-07-26T10:34:08.609Z,29.13
2018-07-26T10:36:38.144Z,28.10
2018-07-26T10:39:08.891Z,27.80
2018-07-26T10:41:37.639Z,26.92
2018-07-26T10:44:07.155Z,25.44
2018-07-26T10:46:36.519Z,24.90
2018-07-26T10:49:05.980Z,25.95
2018-07-26T10:51:35.362Z,27.17
2018-07-26T10:54:04.123Z,25.63
2018-07-26T10:56:33.047Z,26.20
2018-07-26T10:59:06.786Z,26.37
2018-07-26T11:01:36.520Z,25.47
2018-07-26T11:04:05.301Z,25.06
2018-07-26T11:06:35.027Z,25.26
2018-07-26T11:09:04.403Z,25.67
2018-07-26T11:11:33.755Z,25.32
2018-07-26T11:14:02.897Z,25.37
2018-07-26T11:16:31.997Z,24.93
2018-07-26T11:19:01.853Z,24.72
2018-07-26T11:21:31.199Z,25.15
2018-07-26T11:24:00.277Z,25.52
2018-07-26T11:26:29.004Z,23.83
2018-07-26T11:28:58.222Z,24.12
2018-07-26T11:31:27.007Z,23.93
2018-07-26T11:33:56.110Z,24.37
2018-07-26T11:36:25.424Z,24.88
2018-07-26T11:38:54.433Z,23.44
2018-07-26T11:41:23.260Z,23.54
2018-07-26T11:43:52.091Z,23.17
2018-07-26T11:46:20.850Z,22.86
2018-07-26T11:48:49.622Z,22.77
2018-07-26T11:51:18.702Z,23.47
2018-07-26T11:53:47.964Z,23.12
2018-07-26T11:56:17.319Z,22.85
2018-07-26T11:58:46.064Z,22.71
2018-07-26T12:01:14.808Z,21.32
2018-07-26T12:03:43.766Z,21.42
2018-07-26T12:06:12.866Z,21.13
2018-07-26T12:08:41.578Z,20.96
2018-07-26T12:11:10.681Z,21.20
2018-07-26T12:13:40.018Z,21.25
2018-07-26T12:16:08.746Z,21.18
2018-07-26T12:18:37.479Z,21.29
2018-07-26T12:21:06.546Z,21.70
2018-07-26T12:23:36.017Z,20.88
2018-07-26T12:26:05.378Z,20.76
2018-07-26T12:28:34.113Z,21.51
2018-07-26T12:31:03.502Z,21.14
2018-07-26T12:33:32.298Z,21.42
2018-07-26T12:36:01.563Z,21.39
2018-07-26T12:38:30.867Z,21.15
2018-07-26T12:41:00.519Z,20.77
2018-07-26T12:43:29.689Z,20.78
2018-07-26T12:45:58.440Z,21.49
2018-07-26T12:48:27.463Z,21.89
2018-07-26T12:50:56.755Z,22.06
2018-07-26T12:53:26.111Z,22.38
2018-07-26T12:55:55.999Z,22.41
2018-07-26T12:58:25.250Z,21.95
2018-07-26T13:00:54.766Z,22.05
2018-07-26T13:03:23.741Z,21.23
2018-07-26T13:05:52.705Z,21.47
2018-07-26T13:08:22.509Z,21.00
2018-07-26T13:10:51.582Z,21.63
2018-07-26T13:13:20.318Z,21.28
2018-07-26T13:15:49.997Z,20.99
2018-07-26T13:18:19.402Z,20.64
2018-07-26T13:20:48.121Z,21.03
2018-07-26T13:23:17.198Z,21.37
2018-07-26T13:25:45.952Z,21.15
2018-07-26T13:28:14.979Z,20.34
2018-07-26T13:30:44.328Z,19.94
2018-07-26T13:33:13.130Z,19.74
2018-07-26T13:35:42.279Z,20.18
2018-07-26T13:38:11.075Z,20.47
2018-07-26T13:40:40.128Z,20.92
2018-07-26T13:43:09.184Z,20.27
2018-07-26T13:45:38.382Z,20.73
2018-07-26T13:48:07.202Z,21.14
2018-07-26T13:50:35.936Z,20.36
2018-07-26T13:53:05.289Z,19.01
2018-07-26T13:55:34.158Z,18.69
2018-07-26T13:58:03.153Z,18.55
2018-07-26T14:00:33.172Z,19.00
2018-07-26T14:03:05.205Z,19.91
2018-07-26T14:05:35.186Z,20.66
2018-07-26T14:08:05.056Z,20.49
2018-07-26T14:10:35.115Z,19.70
2018-07-26T14:13:04.207Z,19.22
2018-07-26T14:15:33.303Z,19.21
2018-07-26T14:18:02.339Z,18.93
2018-07-26T14:20:32.333Z,19.06
2018-07-26T14:23:01.774Z,18.82
2018-07-26T14:25:31.752Z,19.02
2018-07-26T14:28:01.089Z,18.73
2018-07-26T14:30:30.846Z,17.54
2018-07-26T14:32:59.871Z,18.04
2018-07-26T14:35:33.188Z,18.39
2018-07-26T14:38:02.026Z,18.45
2018-07-26T14:40:31.387Z,18.12
2018-07-26T14:43:00.598Z,17.25
2018-07-26T14:45:30.834Z,17.87
2018-07-26T14:47:59.656Z,18.24
2018-07-26T14:50:28.738Z,18.43
2018-07-26T14:53:00.661Z,18.76
2018-07-26T14:55:29.396Z,17.85
2018-07-26T14:57:58.409Z,19.18
2018-07-26T15:00:27.269Z,19.13
2018-07-26T15:02:59.140Z,19.20
2018-07-26T15:05:29.676Z,18.76
2018-07-26T15:07:59.063Z,18.34
2018-07-26T15:10:31.065Z,18.31
2018-07-26T15:13:00.718Z,18.41
2018-07-26T15:15:30.519Z,18.73
2018-07-26T15:17:59.808Z,18.77
2018-07-26T15:20:30.078Z,18.28
2018-07-26T15:23:00.132Z,18.22
2018-07-26T15:25:29.274Z,18.09
2018-07-26T15:27:58.580Z,18.55
2018-07-26T15:30:27.345Z,18.99
2018-07-26T15:32:56.162Z,18.58
2018-07-26T15:35:25.749Z,18.97
2018-07-26T15:37:55.448Z,18.49
2018-07-26T15:40:24.545Z,18.56
2018-07-26T15:42:53.351Z,19.06
2018-07-26T15:45:22.208Z,19.65
2018-07-26T15:47:51.439Z,19.95
2018-07-26T15:50:20.460Z,19.36
2018-07-26T15:52:49.642Z,19.63
2018-07-26T15:55:18.414Z,19.01
2018-07-26T15:57:47.206Z,19.25
2018-07-26T16:00:16.206Z,19.09
2018-07-26T16:02:45.384Z,19.21
2018-07-26T16:05:14.162Z,18.77
2018-07-26T16:07:42.938Z,19.54
2018-07-26T16:10:12.650Z,19.28
2018-07-26T16:12:42.751Z,19.55
2018-07-26T16:15:13.939Z,19.72
2018-07-26T16:17:44.774Z,19.75
2018-07-26T16:20:15.252Z,19.71
2018-07-26T16:22:44.341Z,19.83
2018-07-26T16:25:13.368Z,19.76
2018-07-26T16:27:42.098Z,19.65
2018-07-26T16:30:12.476Z,19.52
2018-07-26T16:32:41.309Z,19.62
2018-07-26T16:35:10.296Z,19.75
2018-07-26T16:37:39.054Z,19.51
2018-07-26T16:40:08.084Z,19.59
2018-07-26T16:42:38.165Z,20.40
2018-07-26T16:45:08.179Z,19.91
2018-07-26T16:47:37.305Z,19.75
2018-07-26T16:50:07.982Z,20.21
2018-07-26T16:52:37.358Z,20.60
2018-07-26T16:55:06.985Z,20.09
2018-07-26T16:57:36.661Z,19.69
2018-07-26T17:00:07.535Z,20.05
2018-07-26T17:02:37.058Z,20.12
2018-07-26T17:05:07.359Z,20.64
2018-07-26T17:07:36.520Z,20.84
2018-07-26T17:10:06.812Z,20.99
2018-07-26T17:12:36.195Z,20.92
2018-07-26T17:15:06.210Z,20.97
2018-07-26T17:17:35.079Z,21.30
2018-07-26T17:20:04.894Z,20.94
2018-07-26T17:22:34.451Z,20.73
2018-07-26T17:25:04.576Z,21.38
2018-07-26T17:27:34.005Z,21.32
2018-07-26T17:30:03.181Z,21.12
2018-07-26T17:32:32.117Z,21.50
2018-07-26T17:35:00.765Z,21.54
2018-07-26T17:37:29.870Z,21.49
2018-07-26T17:39:59.208Z,21.65
2018-07-26T17:42:28.924Z,21.76
2018-07-26T17:44:58.073Z,22.03
2018-07-26T17:47:27.432Z,21.98
2018-07-26T17:49:56.198Z,22.32
2018-07-26T17:52:25.230Z,22.84
2018-07-26T17:54:54.231Z,22.85
2018-07-26T17:57:23.287Z,23.19
2018-07-26T17:59:52.015Z,23.43
2018-07-26T18:02:21.121Z,23.09
2018-07-26T18:04:49.958Z,23.48
2018-07-26T18:07:19.100Z,23.76
2018-07-26T18:09:48.745Z,23.30
2018-07-26T18:12:17.692Z,23.74
2018-07-26T18:14:46.735Z,23.92
2018-07-26T18:17:15.869Z,23.72
2018-07-26T18:19:44.992Z,24.04
2018-07-26T18:22:13.974Z,24.34
2018-07-26T18:24:42.773Z,24.40
2018-07-26T18:27:11.521Z,24.32
2018-07-26T18:29:41.139Z,24.46
2018-07-26T18:32:09.962Z,24.20
2018-07-26T18:34:39.037Z,24.90
2018-07-26T18:37:07.878Z,24.47
2018-07-26T18:39:36.619Z,24.87
2018-07-26T18:42:06.571Z,24.42
2018-07-26T18:44:35.306Z,24.42
2018-07-26T18:47:04.074Z,25.24
2018-07-26T18:49:33.080Z,25.33
2018-07-26T18:52:02.138Z,25.89
2018-07-26T18:54:30.880Z,25.42
2018-07-26T18:56:59.906Z,26.13
2018-07-26T18:59:28.689Z,26.37
2018-07-26T19:01:58.094Z,26.38
2018-07-26T19:04:27.182Z,26.03
2018-07-26T19:06:55.959Z,26.45
2018-07-26T19:09:24.717Z,26.54
2018-07-26T19:11:53.718Z,27.00
2018-07-26T19:14:22.715Z,27.31
2018-07-26T19:16:52.751Z,27.49
2018-07-26T19:19:21.537Z,27.18
2018-07-26T19:21:50.531Z,27.27
2018-07-26T19:24:19.600Z,28.03
2018-07-26T19:26:48.560Z,27.78
2018-07-26T19:29:17.455Z,27.80
2018-07-26T19:31:46.197Z,28.09
2018-07-26T19:34:14.953Z,28.67
2018-07-26T19:36:43.741Z,28.19
2018-07-26T19:39:13.682Z,29.14
2018-07-26T19:41:43.215Z,28.66
2018-07-26T19:44:12.580Z,29.44
2018-07-26T19:46:41.639Z,29.84
2018-07-26T19:49:10.492Z,29.97
2018-07-26T19:51:39.248Z,29.57
2018-07-26T19:54:08.295Z,29.70
2018-07-26T19:56:37.027Z,29.90
2018-07-26T19:59:05.740Z,30.85
2018-07-26T20:01:34.763Z,30.56
2018-07-26T20:04:03.843Z,30.34
2018-07-26T20:06:32.987Z,31.04
2018-07-26T20:09:01.979Z,31.06
2018-07-26T20:11:31.021Z,31.01
2018-07-26T20:14:00.130Z,31.24
2018-07-26T20:16:29.141Z,32.15
2018-07-26T20:18:58.482Z,31.74
2018-07-26T20:21:27.239Z,32.16
2018-07-26T20:23:56.780Z,32.50
2018-07-26T20:26:25.934Z,32.22
2018-07-26T20:28:54.994Z,33.00
2018-07-26T20:31:23.716Z,32.97
2018-07-26T20:33:53.299Z,33.69
2018-07-26T20:36:22.390Z,33.71
2018-07-26T20:38:51.454Z,33.58
2018-07-26T20:41:21.192Z,33.22
2018-07-26T20:43:49.985Z,34.14
2018-07-26T20:46:18.759Z,34.30
2018-07-26T20:48:48.518Z,33.94
2018-07-26T20:51:17.424Z,34.47
2018-07-26T20:53:46.226Z,34.30
2018-07-26T20:56:15.574Z,34.55
2018-07-26T20:58:44.817Z,34.90
2018-07-26T21:01:13.625Z,34.60
2018-07-26T21:03:42.759Z,35.08
2018-07-26T21:06:11.558Z,35.71
2018-07-26T21:08:40.670Z,35.23
2018-07-26T21:11:09.570Z,34.97
2018-07-26T21:13:38.330Z,35.65
2018-07-26T21:16:07.457Z,36.45
2018-07-26T21:18:36.791Z,36.74
2018-07-26T21:21:05.566Z,35.81
2018-07-26T21:23:34.371Z,36.77
2018-07-26T21:26:03.140Z,36.02
2018-07-26T21:28:32.463Z,36.61
2018-07-26T21:31:01.902Z,36.42
2018-07-26T21:33:30.984Z,36.41
2018-07-26T21:35:59.980Z,37.01
2018-07-26T21:38:28.733Z,37.84
2018-07-26T21:40:57.766Z,37.36
2018-07-26T21:43:26.612Z,37.73
2018-07-26T21:45:55.975Z,37.35
2018-07-26T21:48:24.724Z,37.53
2018-07-26T21:50:53.783Z,38.35
2018-07-26T21:53:22.511Z,38.03
2018-07-26T21:55:51.314Z,38.15
2018-07-26T21:58:20.111Z,38.71
2018-07-26T22:00:53.889Z,38.28
2018-07-26T22:03:22.598Z,38.51
2018-07-26T22:05:51.365Z,39.27
2018-07-26T22:08:20.558Z,39.30
2018-07-26T22:10:49.816Z,39.49
2018-07-26T22:13:19.259Z,39.11
2018-07-26T22:15:48.228Z,39.26
2018-07-26T22:18:16.963Z,39.25
2018-07-26T22:20:46.039Z,39.81
2018-07-26T22:23:14.809Z,39.30
2018-07-26T22:25:46.986Z,40.00
2018-07-26T22:28:15.935Z,40.44
2018-07-26T22:30:45.341Z,40.56
2018-07-26T22:33:14.645Z,41.68
2018-07-26T22:35:44.525Z,41.17
2018-07-26T22:38:13.784Z,40.67
2018-07-26T22:40:42.615Z,41.46
2018-07-26T22:43:11.715Z,41.63
2018-07-26T22:45:40.795Z,41.79
2018-07-26T22:48:09.799Z,41.60
2018-07-26T22:50:38.560Z,41.29
2018-07-26T22:53:07.330Z,41.35
2018-07-26T22:55:36.145Z,41.86
2018-07-26T22:58:04.906Z,42.27
2018-07-26T23:00:34.271Z,43.02
2018-07-26T23:03:03.015Z,42.34
2018-07-26T23:05:32.015Z,43.45
2018-07-26T23:08:00.783Z,42.52
2018-07-26T23:10:30.205Z,43.54
2018-07-26T23:12:59.010Z,43.66
2018-07-26T23:15:27.793Z,43.56
2018-07-26T23:17:56.779Z,43.59
2018-07-26T23:20:25.884Z,43.83
2018-07-26T23:22:56.077Z,44.15
2018-07-26T23:25:24.862Z,44.13
2018-07-26T23:27:53.649Z,44.74
2018-07-26T23:30:22.971Z,44.16
2018-07-26T23:32:51.914Z,44.65
2018-07-26T23:35:20.710Z,44.81
2018-07-26T23:37:49.748Z,45.00
2018-07-26T23:40:18.493Z,44.39
2018-07-26T23:42:47.532Z,44.91
2018-07-26T23:45:16.580Z,45.25
2018-07-26T23:47:45.293Z,44.56
2018-07-26T23:50:14.015Z,45.64
2018-07-26T23:52:43.425Z,45.70
2018-07-26T23:55:12.484Z,45.52
2018-07-26T23:57:41.204Z,45.38
